Time;durP1;ratioP1;P1;durP2;ratioP2;P2;SDS_P1;SDS_P2;PMS_P1;PMS_P2;Temp;Humidity;BMP_temperature;BMP_pressure;BME280_temperature;BME280_humidity;BME280_pressure;Samples;Min_cycle;Max_cycle;Signal;HPM_P1;HPM_P2
2022/04/22 00:00:39;;;;;;;13.25;9.70;;;;;;;-139.48;100.00;61774.03;4982815;28;20045;-73
2022/04/22 00:03:23;;;;;;;12.20;9.07;;;;;;;-139.48;100.00;61774.03;4996996;28;20157;-73
2022/04/22 00:06:07;;;;;;;14.85;9.95;;;;;;;-139.48;100.00;61774.03;4982220;28;20048;-73
2022/04/22 00:08:51;;;;;;;12.35;8.85;;;;;;;-139.48;100.00;61774.03;4982405;28;20053;-73
2022/04/22 00:11:35;;;;;;;17.13;10.23;;;;;;;-139.48;100.00;61774.03;4982366;28;20053;-73
2022/04/22 00:14:18;;;;;;;13.07;10.65;;;;;;;-139.48;100.00;61774.03;4982246;28;20053;-73
2022/04/22 00:17:02;;;;;;;13.20;9.35;;;;;;;-139.48;100.00;61774.03;4981921;28;20065;-73
2022/04/22 00:19:46;;;;;;;14.55;10.73;;;;;;;-139.48;100.00;61774.03;4997249;28;20049;-73
2022/04/22 00:22:30;;;;;;;14.18;10.23;;;;;;;-139.48;100.00;61774.03;4996926;28;20064;-73
2022/04/22 00:25:14;;;;;;;13.45;9.48;;;;;;;-139.48;100.00;61774.03;4996897;28;20049;-73
2022/04/22 00:27:58;;;;;;;14.85;10.02;;;;;;;-139.48;100.00;61774.03;4982376;28;20108;-73
2022/04/22 00:30:43;;;;;;;14.55;10.35;;;;;;;-139.48;100.00;61774.03;4968586;28;20112;-72
2022/04/22 00:33:26;;;;;;;;;;;;;;;-139.48;100.00;61774.03;4996871;28;20044;-73
2022/04/22 00:36:10;;;;;;;15.60;10.17;;;;;;;-139.48;100.00;61774.03;4981622;28;19983;-73
2022/04/22 00:38:54;;;;;;;13.25;9.20;;;;;;;-139.48;100.00;61774.03;4981578;28;20100;-72
2022/04/22 00:41:38;;;;;;;14.00;10.00;;;;;;;-139.48;100.00;61774.03;4996600;28;20104;-72
2022/04/22 00:44:22;;;;;;;14.70;10.32;;;;;;;-139.48;100.00;61774.03;4981776;28;20134;-73
2022/04/22 00:47:06;;;;;;;13.43;9.80;;;;;;;-139.48;100.00;61774.03;4981910;28;20188;-72
2022/04/22 00:49:50;;;;;;;15.45;10.80;;;;;;;-139.48;100.00;61774.03;4995186;28;20093;-73
2022/04/22 00:52:34;;;;;;;14.75;9.65;;;;;;;-139.48;100.00;61774.03;4981648;28;20138;-73
2022/04/22 00:55:19;;;;;;;16.55;11.50;;;;;;;-139.48;100.00;61774.03;4981454;28;20054;-73
2022/04/22 00:58:04;;;;;;;16.05;10.90;;;;;;;-139.48;100.00;61774.03;4981662;28;20045;-73
2022/04/22 01:00:48;;;;;;;18.83;11.75;;;;;;;-139.48;100.00;61774.03;4981520;28;20053;-73
2022/04/22 01:03:32;;;;;;;18.35;11.70;;;;;;;-139.48;100.00;61774.03;4981713;28;20084;-72
2022/04/22 01:10:02;;;;;;;20.00;11.27;;;;;;;-139.48;100.00;61774.03;4983877;28;20197;-73
2022/04/22 01:12:30;;;;;;;16.30;11.25;;;;;;;-139.48;100.00;61774.03;4985142;28;20128;-73
2022/04/22 01:15:14;;;;;;;15.63;9.95;;;;;;;-139.48;100.00;61774.03;4996220;28;20061;-73
2022/04/22 01:17:58;;;;;;;18.55;12.10;;;;;;;-139.48;100.00;61774.03;4981182;28;20053;-73
2022/04/22 01:20:42;;;;;;;17.02;10.95;;;;;;;-139.48;100.00;61774.03;4981110;28;20053;-72
2022/04/22 01:23:25;;;;;;;18.67;12.00;;;;;;;-139.48;100.00;61774.03;4981122;28;20061;-73
2022/04/22 01:26:10;;;;;;;18.75;12.57;;;;;;;-139.48;100.00;61774.03;4981177;28;20549;-73
2022/04/22 01:28:55;;;;;;;17.33;11.23;;;;;;;-139.48;100.00;61774.03;4995689;28;20501;-73
2022/04/22 01:31:39;;;;;;;18.00;12.35;;;;;;;-139.48;100.00;61774.03;4980581;28;20048;-73
2022/04/22 01:34:22;;;;;;;18.33;11.20;;;;;;;-139.48;100.00;61774.03;4995347;28;20415;-73
2022/04/22 01:37:07;;;;;;;19.23;12.38;;;;;;;-139.48;100.00;61774.03;5002937;23;20457;-69
2022/04/22 01:39:51;;;;;;;19.13;12.25;;;;;;;-139.48;100.00;61774.03;4980744;28;20100;-69
2022/04/22 01:42:35;;;;;;;16.52;11.65;;;;;;;-139.48;100.00;61774.03;4995455;28;20049;-69
2022/04/22 01:45:19;;;;;;;17.90;12.32;;;;;;;-139.48;100.00;61774.03;4980653;28;20100;-69
2022/04/22 01:48:03;;;;;;;18.55;11.75;;;;;;;-139.48;100.00;61774.03;4995259;28;20132;-69
2022/04/22 01:50:47;;;;;;;20.38;13.10;;;;;;;-139.48;100.00;61774.03;4980003;28;20057;-69
2022/04/22 01:53:31;;;;;;;19.20;12.68;;;;;;;-139.48;100.00;61774.03;4980260;28;20049;-69
2022/04/22 01:56:15;;;;;;;16.02;11.68;;;;;;;-139.48;100.00;61774.03;4980019;28;20041;-69
2022/04/22 01:58:59;;;;;;;20.70;13.63;;;;;;;-139.48;100.00;61774.03;4995138;28;20053;-69
2022/04/22 02:01:43;;;;;;;21.77;13.68;;;;;;;-139.48;100.00;61774.03;4980328;28;20514;-69
2022/04/22 02:04:27;;;;;;;21.73;13.88;;;;;;;-139.48;100.00;61774.03;4980018;28;20505;-69
2022/04/22 02:07:11;;;;;;;21.17;12.48;;;;;;;-139.48;100.00;61774.03;4994679;28;20045;-69
2022/04/22 02:09:55;;;;;;;25.80;14.82;;;;;;;-139.48;100.00;61774.03;4980242;28;20057;-69
2022/04/22 02:12:39;;;;;;;19.00;13.45;;;;;;;-139.48;100.00;61774.03;4980156;28;20461;-69
2022/04/22 02:15:24;;;;;;;24.27;14.25;;;;;;;-139.48;100.00;61774.03;4980022;28;20049;-69
2022/04/22 02:18:08;;;;;;;22.75;14.27;;;;;;;-139.48;100.00;61774.03;4980014;28;20053;-69
2022/04/22 02:20:53;;;;;;;20.27;13.63;;;;;;;-139.48;100.00;61774.03;4994560;28;20073;-69
2022/04/22 02:23:37;;;;;;;21.85;13.45;;;;;;;-139.48;100.00;61774.03;4994443;28;20053;-69
2022/04/22 02:26:21;;;;;;;22.77;14.82;;;;;;;-139.48;100.00;61774.03;4979578;28;20581;-69
2022/04/22 02:29:05;;;;;;;21.95;14.52;;;;;;;-139.48;100.00;61774.03;4979647;28;20517;-69
2022/04/22 02:31:53;;;;;;;22.00;13.18;;;;;;;-139.48;100.00;61774.03;4979781;28;20138;-69
2022/04/22 02:34:37;;;;;;;18.38;12.52;;;;;;;-139.48;100.00;61774.03;4980178;28;20402;-69
2022/04/22 02:37:21;;;;;;;21.65;13.35;;;;;;;-139.48;100.00;61774.03;4979353;28;20599;-69
2022/04/22 02:40:08;;;;;;;24.40;14.40;;;;;;;-139.48;100.00;61774.03;4979489;28;20254;-69
2022/04/22 02:45:55;;;;;;;22.60;14.60;;;;;;;-139.48;100.00;61774.03;4981915;28;20045;-69
2022/04/22 02:48:39;;;;;;;21.15;13.40;;;;;;;-139.48;100.00;61774.03;4994411;28;20529;-69
2022/04/22 02:51:24;;;;;;;24.13;13.88;;;;;;;-139.48;100.00;61774.03;4979346;28;20096;-69
2022/04/22 02:54:08;;;;;;;21.05;14.13;;;;;;;-139.48;100.00;61774.03;4994307;28;20045;-69
2022/04/22 02:56:53;;;;;;;22.23;13.65;;;;;;;-139.48;100.00;61774.03;4979120;28;20045;-69
2022/04/22 02:59:39;;;;;;;19.95;13.68;;;;;;;-139.48;100.00;61774.03;4979419;28;20073;-69
2022/04/22 03:02:23;;;;;;;23.83;14.32;;;;;;;-139.48;100.00;61774.03;4979406;28;20057;-69
2022/04/22 03:05:11;;;;;;;21.73;13.55;;;;;;;-139.48;100.00;61774.03;4979389;28;20522;-69
2022/04/22 03:07:55;;;;;;;18.55;13.07;;;;;;;-139.48;100.00;61774.03;4979113;28;20085;-69
2022/04/22 03:10:39;;;;;;;19.15;12.77;;;;;;;-139.48;100.00;61774.03;4979392;28;20501;-69
2022/04/22 03:13:23;;;;;;;21.13;13.23;;;;;;;-139.48;100.00;61774.03;4979066;28;20057;-69
2022/04/22 03:16:07;;;;;;;21.35;14.13;;;;;;;-139.48;100.00;61774.03;4993866;28;20049;-69
2022/04/22 03:18:51;;;;;;;20.20;13.00;;;;;;;-139.48;100.00;61774.03;4979327;28;20053;-68
2022/04/22 03:21:34;;;;;;;21.60;14.57;;;;;;;-139.48;100.00;61774.03;4979317;28;20096;-69
2022/04/22 03:24:18;;;;;;;23.13;13.52;;;;;;;-139.48;100.00;61774.03;4979241;28;20054;-69
2022/04/22 03:27:03;;;;;;;20.70;13.30;;;;;;;-139.48;100.00;61774.03;4978997;28;20049;-69
2022/04/22 03:29:47;;;;;;;21.17;12.82;;;;;;;-139.48;100.00;61774.03;4993630;28;20053;-69
2022/04/22 03:32:31;;;;;;;25.05;13.75;;;;;;;-139.48;100.00;61774.03;4979202;28;20464;-69
2022/04/22 03:35:14;;;;;;;21.23;13.07;;;;;;;-139.48;100.00;61774.03;4978905;28;20495;-69
2022/04/22 03:37:58;;;;;;;21.00;13.38;;;;;;;-139.48;100.00;61774.03;4978700;28;20061;-69
2022/04/22 03:40:42;;;;;;;21.23;13.80;;;;;;;-139.48;100.00;61774.03;4993552;28;20421;-69
2022/04/22 03:43:26;;;;;;;22.95;14.23;;;;;;;-139.48;100.00;61774.03;4978808;28;20099;-69
2022/04/22 03:46:10;;;;;;;22.92;13.55;;;;;;;-139.48;100.00;61774.03;4978952;28;20049;-69
2022/04/22 03:48:56;;;;;;;20.55;12.95;;;;;;;-139.48;100.00;61774.03;4979068;28;20046;-69
2022/04/22 03:51:40;;;;;;;20.90;13.30;;;;;;;-139.48;100.00;61774.03;4979269;28;20048;-69
2022/04/22 03:54:25;;;;;;;24.88;14.32;;;;;;;-139.48;100.00;61774.03;4965009;28;20518;-69
2022/04/22 04:00:12;;;;;;;19.90;12.73;;;;;;;-139.48;100.00;61774.03;4993671;28;20097;-69
2022/04/22 04:02:56;;;;;;;21.65;13.35;;;;;;;-139.48;100.00;61774.03;4978610;28;20101;-69
2022/04/22 04:05:41;;;;;;;22.00;14.55;;;;;;;-139.48;100.00;61774.03;4993684;28;20505;-69
2022/04/22 04:08:25;;;;;;;19.80;13.38;;;;;;;-139.48;100.00;61774.03;4965231;28;20426;-69
2022/04/22 04:17:15;;;;;;;23.10;15.00;;;;;;;-139.48;100.00;61774.03;4996650;28;20121;-69
2022/04/22 04:23:17;;;;;;;23.88;14.98;;;;;;;-139.48;100.00;61774.03;4984877;28;20117;-69
2022/04/22 04:26:01;;;;;;;20.40;13.48;;;;;;;-139.48;100.00;61774.03;4984019;28;20045;-69
2022/04/22 04:28:47;;;;;;;25.00;15.15;;;;;;;-139.48;100.00;61774.03;4996609;28;20537;-69
2022/04/22 04:31:33;;;;;;;26.90;15.82;;;;;;;-139.48;100.00;61774.03;4997071;28;20053;-69
2022/04/22 04:34:16;;;;;;;24.00;14.95;;;;;;;-139.48;100.00;61774.03;4996760;28;20049;-69
2022/04/22 04:37:00;;;;;;;26.02;14.43;;;;;;;-139.48;100.00;61774.03;4996324;28;20097;-69
2022/04/22 04:39:44;;;;;;;26.35;16.77;;;;;;;-139.48;100.00;61774.03;4968213;28;20442;-69
2022/04/22 04:42:28;;;;;;;26.98;14.38;;;;;;;-139.48;100.00;61774.03;4981830;28;20478;-69
2022/04/22 04:45:12;;;;;;;23.77;15.88;;;;;;;-139.48;100.00;61774.03;4981784;28;20049;-69
2022/04/22 04:47:57;;;;;;;28.83;16.48;;;;;;;-139.48;100.00;61774.03;4996419;28;20048;-69
2022/04/22 04:50:41;;;;;;;27.85;16.38;;;;;;;-139.48;100.00;61774.03;4996487;28;20132;-69
2022/04/22 04:53:24;;;;;;;30.45;16.05;;;;;;;-139.48;100.00;61774.03;4981426;28;20057;-69
2022/04/22 04:56:08;;;;;;;28.77;15.95;;;;;;;-139.48;100.00;61774.03;4981613;28;20044;-69
2022/04/22 04:58:52;;;;;;;31.27;17.20;;;;;;;-139.48;100.00;61774.03;4996096;28;20069;-69
2022/04/22 05:01:37;;;;;;;26.80;16.33;;;;;;;-139.48;100.00;61774.03;4995979;28;20426;-69
2022/04/22 05:04:21;;;;;;;28.33;16.52;;;;;;;-139.48;100.00;61774.03;4981191;28;20046;-69
2022/04/22 05:07:05;;;;;;;33.95;18.90;;;;;;;-139.48;100.00;61774.03;4981290;28;20049;-69
2022/04/22 05:09:49;;;;;;;29.92;18.48;;;;;;;-139.48;100.00;61774.03;4996136;28;20099;-69
2022/04/22 05:12:33;;;;;;;28.80;18.17;;;;;;;-139.48;100.00;61774.03;4981073;28;20585;-69
2022/04/22 05:15:19;;;;;;;30.05;17.58;;;;;;;-139.48;100.00;61774.03;4980999;28;20049;-69
2022/04/22 05:18:03;;;;;;;27.95;16.05;;;;;;;-139.48;100.00;61774.03;4981058;28;20056;-68
2022/04/22 05:20:48;;;;;;;29.17;17.10;;;;;;;-139.48;100.00;61774.03;4995581;28;20053;-68
2022/04/22 05:23:31;;;;;;;33.92;17.60;;;;;;;-139.48;100.00;61774.03;4995823;28;20146;-69
2022/04/22 05:26:15;;;;;;;32.92;18.70;;;;;;;-139.48;100.00;61774.03;4995903;28;20578;-69
2022/04/22 05:28:59;;;;;;;30.05;17.38;;;;;;;-139.48;100.00;61774.03;4967283;28;20646;-69
2022/04/22 05:34:46;;;;;;;34.17;18.30;;;;;;;-139.48;100.00;61774.03;4995333;28;20049;-69
2022/04/22 05:37:49;;;;;;;;;;;;;;;-139.48;100.00;61774.03;4967122;28;20522;-69
2022/04/22 05:40:34;;;;;;;34.13;18.30;;;;;;;-139.48;100.00;61774.03;4980985;28;19924;-69
2022/04/22 05:43:18;;;;;;;29.58;18.42;;;;;;;-139.48;100.00;61774.03;4980794;28;20418;-69
2022/04/22 05:46:02;;;;;;;35.55;20.00;;;;;;;-139.48;100.00;61774.03;4980584;28;20462;-69
2022/04/22 05:48:47;;;;;;;33.05;19.40;;;;;;;-139.48;100.00;61774.03;4980691;28;20134;-69
2022/04/22 05:51:31;;;;;;;30.75;18.27;;;;;;;-139.48;100.00;61774.03;4995346;28;20133;-69
2022/04/22 05:54:14;;;;;;;34.38;19.42;;;;;;;-139.48;100.00;61774.03;4980574;28;20100;-69
2022/04/22 05:56:58;;;;;;;35.72;19.20;;;;;;;-139.48;100.00;61774.03;4994993;28;20093;-69
2022/04/22 05:59:42;;;;;;;30.10;18.75;;;;;;;-139.48;100.00;61774.03;4995209;28;20052;-69
2022/04/22 06:02:26;;;;;;;33.40;19.13;;;;;;;-139.48;100.00;61774.03;4980616;28;20422;-69
2022/04/22 06:05:17;;;;;;;31.58;19.13;;;;;;;-139.48;100.00;61774.03;4980579;28;20045;-69
2022/04/22 06:11:11;;;;;;;33.95;18.15;;;;;;;-139.48;100.00;61774.03;4982806;28;20133;-69
2022/04/22 06:13:55;;;;;;;30.92;18.73;;;;;;;-139.48;100.00;61774.03;4980191;28;20530;-69
2022/04/22 06:16:40;;;;;;;32.45;19.50;;;;;;;-139.48;100.00;61774.03;4994602;28;20049;-69
2022/04/22 06:19:24;;;;;;;32.15;19.73;;;;;;;-139.48;100.00;61774.03;4994764;28;20061;-69
2022/04/22 06:22:08;;;;;;;32.47;19.63;;;;;;;-139.48;100.00;61774.03;4994795;28;20509;-69
2022/04/22 06:24:52;;;;;;;32.80;20.58;;;;;;;-139.48;100.00;61774.03;4979737;28;20528;-69
2022/04/22 06:27:38;;;;;;;31.48;19.23;;;;;;;-139.48;100.00;61774.03;4979613;28;20418;-69
2022/04/22 06:30:22;;;;;;;35.63;19.38;;;;;;;-139.48;100.00;61774.03;4979910;28;20108;-69
2022/04/22 06:33:07;;;;;;;34.33;20.17;;;;;;;-139.48;100.00;61774.03;4966214;28;20050;-69
2022/04/22 06:35:51;;;;;;;32.03;19.50;;;;;;;-139.48;100.00;61774.03;4979874;28;20041;-69
2022/04/22 06:38:35;;;;;;;34.08;20.67;;;;;;;-139.48;100.00;61774.03;4979617;28;20402;-69
2022/04/22 06:47:25;;;;;;;31.90;19.27;;;;;;;-139.48;100.00;61774.03;4994046;28;20461;-69
2022/04/22 06:50:10;;;;;;;37.08;19.80;;;;;;;-139.48;100.00;61774.03;4979580;28;20502;-69
2022/04/22 06:52:54;;;;;;;32.35;19.52;;;;;;;-139.48;100.00;61774.03;4979528;28;20057;-69
2022/04/22 06:55:38;;;;;;;32.55;19.45;;;;;;;-139.48;100.00;61774.03;4979234;28;20065;-69
2022/04/22 06:58:22;;;;;;;;;;;;;;;-139.48;100.00;61774.03;4980020;28;20057;-69
2022/04/22 07:01:07;;;;;;;30.63;18.88;;;;;;;-139.48;100.00;61774.03;4979267;28;19921;-69
2022/04/22 07:03:51;;;;;;;29.80;18.10;;;;;;;-139.48;100.00;61774.03;4993910;28;20141;-69
2022/04/22 07:06:34;;;;;;;28.65;19.35;;;;;;;-139.48;100.00;61774.03;4979331;28;20100;-69
2022/04/22 07:09:18;;;;;;;34.75;19.48;;;;;;;-139.48;100.00;61774.03;4993982;28;20057;-69
2022/04/22 07:12:03;;;;;;;32.58;20.00;;;;;;;-139.48;100.00;61774.03;4979238;28;20057;-69
2022/04/22 07:14:49;;;;;;;29.83;19.48;;;;;;;-139.48;100.00;61774.03;4979257;28;20513;-69
2022/04/22 07:17:34;;;;;;;32.38;19.60;;;;;;;-139.48;100.00;61774.03;4979117;28;20056;-69
2022/04/22 07:20:18;;;;;;;30.77;19.60;;;;;;;-139.48;100.00;61774.03;4965953;28;20100;-69
2022/04/22 07:23:03;;;;;;;30.10;19.60;;;;;;;-139.48;100.00;61774.03;4980184;28;20053;-69
2022/04/22 07:25:48;;;;;;;28.30;18.70;;;;;;;-139.48;100.00;61774.03;4980007;28;20057;-69
2022/04/22 07:28:32;;;;;;;30.67;17.67;;;;;;;-139.48;100.00;61774.03;4980612;28;20053;-69
2022/04/22 07:31:21;;;;;;;27.88;18.27;;;;;;;-139.48;100.00;61774.03;4966921;28;20045;-69
2022/04/22 07:34:08;;;;;;;25.60;18.15;;;;;;;-139.48;100.00;61774.03;4980731;28;20097;-69
2022/04/22 07:36:52;;;;;;;26.45;17.33;;;;;;;-139.48;100.00;61774.03;4997464;23;20100;-73
2022/04/22 07:39:38;;;;;;;26.98;17.63;;;;;;;-139.48;100.00;61774.03;4998327;28;20105;-73
2022/04/22 07:42:23;;;;;;;28.45;18.50;;;;;;;-139.48;100.00;61774.03;5012428;28;20096;-73
2022/04/22 07:48:11;;;;;;;25.33;17.92;;;;;;;-139.48;100.00;61774.03;5013055;28;20049;-72
2022/04/22 07:50:54;;;;;;;27.92;17.98;;;;;;;-139.48;100.00;61774.03;5016003;28;20096;-73
2022/04/22 07:53:39;;;;;;;28.35;18.58;;;;;;;-139.48;100.00;61774.03;5016863;28;20078;-72
2022/04/22 07:56:23;;;;;;;22.75;15.90;;;;;;;-139.48;100.00;61774.03;5016938;28;20402;-73
2022/04/22 07:59:08;;;;;;;28.95;17.77;;;;;;;-139.48;100.00;61774.03;5001932;28;20056;-73
2022/04/22 08:01:52;;;;;;;28.00;18.45;;;;;;;-139.48;100.00;61774.03;5002107;28;20057;-73
2022/04/22 08:04:36;;;;;;;23.58;17.05;;;;;;;-139.48;100.00;61774.03;5002075;28;20084;-73
2022/04/22 08:07:20;;;;;;;29.55;18.20;;;;;;;-139.48;100.00;61774.03;5001583;28;20049;-73
2022/04/22 08:10:05;;;;;;;25.33;17.58;;;;;;;-139.48;100.00;61774.03;5001658;28;20133;-73
2022/04/22 08:12:50;;;;;;;24.35;16.58;;;;;;;-139.48;100.00;61774.03;5016778;28;20498;-73
2022/04/22 08:15:35;;;;;;;24.30;16.13;;;;;;;-139.48;100.00;61774.03;4988036;28;20184;-72
2022/04/22 08:18:19;;;;;;;22.90;16.15;;;;;;;-139.48;100.00;61774.03;5001766;28;20155;-73
2022/04/22 08:21:03;;;;;;;23.98;16.00;;;;;;;-139.48;100.00;61774.03;4987976;28;20084;-72
2022/04/22 08:23:48;;;;;;;24.13;16.25;;;;;;;-139.48;100.00;61774.03;5001665;28;20088;-72
2022/04/22 08:26:32;;;;;;;21.55;16.17;;;;;;;-139.48;100.00;61774.03;4987963;28;20049;-72
2022/04/22 08:29:16;;;;;;;22.83;16.30;;;;;;;-139.48;100.00;61774.03;4987850;28;20045;-73
2022/04/22 08:32:00;;;;;;;21.25;15.38;;;;;;;-139.48;100.00;61774.03;5001601;28;20516;-73
2022/04/22 08:34:46;;;;;;;20.13;14.98;;;;;;;-139.48;100.00;61774.03;5001191;28;20048;-73
2022/04/22 08:37:30;;;;;;;20.50;15.02;;;;;;;-139.48;100.00;61774.03;5015775;28;20088;-73
2022/04/22 08:40:14;;;;;;;21.95;15.18;;;;;;;-139.48;100.00;61774.03;5001313;28;20552;-72
2022/04/22 08:43:00;;;;;;;19.50;14.35;;;;;;;-139.48;100.00;61774.03;4987359;28;20516;-72
2022/04/22 08:45:44;;;;;;;22.95;15.20;;;;;;;-139.48;100.00;61774.03;5001514;28;20125;-73
2022/04/22 08:51:34;;;;;;;18.77;13.80;;;;;;;-139.48;100.00;61774.03;5003602;28;20084;-73
2022/04/22 08:54:20;;;;;;;21.60;14.65;;;;;;;-139.48;100.00;61774.03;5000880;28;20461;-73
2022/04/22 08:57:03;;;;;;;21.38;13.68;;;;;;;-139.48;100.00;61774.03;5000673;28;20528;-73
2022/04/22 08:59:48;;;;;;;20.77;15.23;;;;;;;-139.48;100.00;61774.03;5001207;28;20057;-73
2022/04/22 09:02:31;;;;;;;20.85;15.00;;;;;;;-139.48;100.00;61774.03;5015603;28;20544;-72
2022/04/22 09:05:16;;;;;;;21.60;14.88;;;;;;;-139.48;100.00;61774.03;5001202;28;20080;-72
2022/04/22 09:08:00;;;;;;;19.40;13.45;;;;;;;-139.48;100.00;61774.03;5000858;28;20237;-72
2022/04/22 09:10:51;;;;;;;18.48;13.57;;;;;;;-139.48;100.00;61774.03;5000651;28;20115;-72
2022/04/22 09:13:35;;;;;;;18.30;13.25;;;;;;;-139.48;100.00;61774.03;5001028;28;20052;-72
2022/04/22 09:16:20;;;;;;;21.70;15.70;;;;;;;-139.48;100.00;61774.03;5015508;28;20414;-72
2022/04/22 09:19:04;;;;;;;17.27;13.10;;;;;;;-139.48;100.00;61774.03;5000556;28;20100;-72
2022/04/22 09:21:56;;;;;;;18.73;13.48;;;;;;;-139.48;100.00;61774.03;5000643;28;20173;-73
2022/04/22 09:24:47;;;;;;;17.35;13.02;;;;;;;-139.48;100.00;61774.03;5000480;28;20061;-72
2022/04/22 09:27:33;;;;;;;18.63;13.18;;;;;;;-139.48;100.00;61774.03;5000484;28;20048;-72
2022/04/22 09:30:17;;;;;;;16.98;12.82;;;;;;;-139.48;100.00;61774.03;5000467;28;20049;-72
2022/04/22 09:33:01;;;;;;;16.77;11.93;;;;;;;-139.48;100.00;61774.03;4986709;28;20057;-72
2022/04/22 09:42:59;;;;;;;18.83;13.55;;;;;;;-139.48;100.00;61774.03;5002929;28;20500;-72
2022/04/22 09:45:18;;;;;;;16.20;12.55;;;;;;;-139.48;100.00;61774.03;5013136;28;20456;-72
2022/04/22 09:48:10;;;;;;;;;;;;;;;-139.48;100.00;61774.03;4986451;28;20048;-72
2022/04/22 09:50:55;;;;;;;19.05;12.05;;;;;;;-139.48;100.00;61774.03;5000367;28;19919;-73
2022/04/22 09:53:40;;;;;;;20.73;12.57;;;;;;;-139.48;100.00;61774.03;4986064;28;20084;-73
2022/04/22 09:56:23;;;;;;;18.13;12.73;;;;;;;-139.48;100.00;61774.03;5014699;28;20060;-73
2022/04/22 09:59:27;;;;;;;16.85;12.02;;;;;;;-139.48;100.00;61774.03;4986167;28;20509;-72
2022/04/22 10:02:13;;;;;;;14.93;11.35;;;;;;;-139.48;100.00;61774.03;4999701;28;20052;-72
2022/04/22 10:04:57;;;;;;;14.82;11.15;;;;;;;-139.48;100.00;61774.03;4985841;28;20067;-72
2022/04/22 10:07:42;;;;;;;13.95;11.20;;;;;;;-139.48;100.00;61774.03;4999771;28;20119;-73
2022/04/22 10:10:31;;;;;;;17.35;10.60;;;;;;;-139.48;100.00;61774.03;5014485;28;20126;-72
2022/04/22 10:13:17;;;;;;;14.93;10.45;;;;;;;-139.48;100.00;61774.03;4998650;28;20053;-73
2022/04/22 10:16:02;;;;;;;18.67;11.07;;;;;;;-139.48;100.00;61774.03;4999285;28;20097;-73
2022/04/22 10:18:47;;;;;;;17.10;11.70;;;;;;;-139.48;100.00;61774.03;4999743;28;20060;-73
2022/04/22 10:21:31;;;;;;;14.27;10.65;;;;;;;-139.48;100.00;61774.03;4986071;28;20045;-72
2022/04/22 10:24:15;;;;;;;;;;;;;;;-139.48;100.00;61774.03;4986227;28;20053;-73
2022/04/22 10:27:02;;;;;;;15.57;13.00;;;;;;;-139.48;100.00;61774.03;4999339;28;19920;-73
2022/04/22 10:29:46;;;;;;;12.60;10.32;;;;;;;-139.48;100.00;61774.03;4999788;28;20049;-73
2022/04/22 10:32:31;;;;;;;15.32;11.88;;;;;;;-139.48;100.00;61774.03;4985422;28;20053;-73
2022/04/22 10:35:16;;;;;;;17.25;12.05;;;;;;;-139.48;100.00;61774.03;4999629;28;20176;-73
2022/04/22 10:38:00;;;;;;;12.82;11.50;;;;;;;-139.48;100.00;61774.03;4998797;28;20592;-72
2022/04/22 10:40:48;;;;;;;17.83;12.75;;;;;;;-139.48;100.00;61774.03;4999216;28;20184;-73
2022/04/22 10:43:33;;;;;;;15.30;11.48;;;;;;;-139.48;100.00;61774.03;5013758;28;20045;-73
2022/04/22 10:49:21;;;;;;;13.68;11.82;;;;;;;-139.48;100.00;61774.03;5001500;28;20048;-73
2022/04/22 10:52:11;;;;;;;13.05;11.65;;;;;;;-139.48;100.00;61774.03;4999249;28;20057;-72
2022/04/22 10:54:55;;;;;;;13.43;12.02;;;;;;;-139.48;100.00;61774.03;5013623;28;20111;-72
2022/04/22 10:57:42;;;;;;;14.60;13.05;;;;;;;-139.48;100.00;61774.03;4998853;28;20477;-72
2022/04/22 11:00:29;;;;;;;13.00;11.60;;;;;;;-139.48;100.00;61774.03;4999344;28;20496;-73
2022/04/22 11:03:16;;;;;;;14.40;11.63;;;;;;;-139.48;100.00;61774.03;4999137;28;20121;-73
2022/04/22 11:06:06;;;;;;;11.18;10.02;;;;;;;-139.48;100.00;61774.03;4998630;28;20129;-73
2022/04/22 11:09:02;;;;;;;14.15;12.60;;;;;;;-139.48;100.00;61774.03;4999029;28;20509;-74
2022/04/22 11:11:46;;;;;;;12.30;11.10;;;;;;;-139.48;100.00;61774.03;4985435;28;20168;-73
2022/04/22 11:14:32;;;;;;;13.70;11.45;;;;;;;-139.48;100.00;61774.03;4985139;28;20076;-73
2022/04/22 11:17:33;;;;;;;13.48;11.13;;;;;;;-139.48;100.00;61774.03;4998693;28;20052;-73
2022/04/22 11:20:17;;;;;;;12.07;10.88;;;;;;;-139.48;100.00;61774.03;5013566;28;20536;-74
2022/04/22 11:23:03;;;;;;;13.45;11.52;;;;;;;-139.48;100.00;61774.03;4998554;28;20060;-74
2022/04/22 11:25:51;;;;;;;12.27;10.98;;;;;;;-139.48;100.00;61774.03;5017662;28;20088;-73
2022/04/22 11:28:36;;;;;;;13.77;10.57;;;;;;;-139.48;100.00;61774.03;5002669;28;20056;-73
2022/04/22 11:31:25;;;;;;;14.02;10.85;;;;;;;-139.48;100.00;61774.03;5002712;28;20513;-74
2022/04/22 11:34:16;;;;;;;11.40;10.30;;;;;;;-139.48;100.00;61774.03;5002300;28;20049;-74
2022/04/22 11:37:01;;;;;;;14.35;11.60;;;;;;;-139.48;100.00;61774.03;4988646;28;20096;-74
2022/04/22 11:39:49;;;;;;;11.40;10.20;;;;;;;-139.48;100.00;61774.03;5002403;28;20465;-73
2022/04/22 11:42:43;;;;;;;10.50;9.30;;;;;;;-139.48;100.00;61774.03;5002470;28;20449;-73
2022/04/22 11:45:26;;;;;;;10.93;9.82;;;;;;;-139.48;100.00;61774.03;5016922;28;20540;-73
2022/04/22 11:48:12;;;;;;;11.20;10.02;;;;;;;-139.48;100.00;61774.03;4988302;28;20053;-73
2022/04/22 11:50:59;;;;;;;9.85;8.95;;;;;;;-139.48;100.00;61774.03;5002098;28;20049;-73
2022/04/22 11:54:01;;;;;;;9.93;8.93;;;;;;;-139.48;100.00;61774.03;4988577;28;20076;-73
2022/04/22 11:56:45;;;;;;;11.13;10.02;;;;;;;-139.48;100.00;61774.03;4988486;28;20041;-73
2022/04/22 11:59:29;;;;;;;12.43;9.63;;;;;;;-139.48;100.00;61774.03;5017058;28;20074;-73
2022/04/22 12:05:36;;;;;;;10.00;9.00;;;;;;;-139.48;100.00;61774.03;5016633;28;20420;-73
2022/04/22 12:08:20;;;;;;;10.55;9.55;;;;;;;-139.48;100.00;61774.03;4990548;28;20225;-73
2022/04/22 12:11:04;;;;;;;9.20;8.30;;;;;;;-139.48;100.00;61774.03;5001978;28;20096;-73
2022/04/22 12:13:48;;;;;;;8.85;7.95;;;;;;;-139.48;100.00;61774.03;5001695;28;20129;-73
2022/04/22 12:16:32;;;;;;;10.15;9.20;;;;;;;-139.48;100.00;61774.03;4988091;28;20048;-73
2022/04/22 12:19:17;;;;;;;10.38;9.10;;;;;;;-139.48;100.00;61774.03;5001683;28;20184;-73
2022/04/22 12:22:01;;;;;;;9.63;8.73;;;;;;;-139.48;100.00;61774.03;4988106;28;20048;-73
2022/04/22 12:25:11;;;;;;;10.10;9.07;;;;;;;-139.48;100.00;61774.03;5001420;28;20099;-73
2022/04/22 12:28:11;;;;;;;11.35;8.95;;;;;;;-139.48;100.00;61774.03;5001406;28;20041;-73
2022/04/22 12:30:55;;;;;;;10.75;9.00;;;;;;;-139.48;100.00;61774.03;5016472;28;20413;-73
2022/04/22 12:33:39;;;;;;;9.38;8.48;;;;;;;-139.48;100.00;61774.03;5001587;28;20080;-73
2022/04/22 12:36:22;;;;;;;12.50;9.98;;;;;;;-139.48;100.00;61774.03;4986969;28;20049;-73
2022/04/22 12:39:08;;;;;;;11.80;10.38;;;;;;;-139.48;100.00;61774.03;5016271;28;20049;-73
2022/04/22 12:41:52;;;;;;;11.20;9.82;;;;;;;-139.48;100.00;61774.03;5001203;28;20057;-73
2022/04/22 12:44:36;;;;;;;9.88;8.35;;;;;;;-139.48;100.00;61774.03;5001098;28;20100;-73
2022/04/22 12:53:29;;;;;;;10.67;7.60;;;;;;;-139.48;100.00;61774.03;5003666;28;20103;-73
2022/04/22 12:56:14;;;;;;;11.32;8.50;;;;;;;-139.48;100.00;61774.03;4987827;28;20125;-73
2022/04/22 12:59:03;;;;;;;8.32;7.55;;;;;;;-139.48;100.00;61774.03;5000804;28;20517;-72
2022/04/22 13:01:48;;;;;;;8.65;7.75;;;;;;;-139.48;100.00;61774.03;4987645;28;20040;-73
2022/04/22 13:04:32;;;;;;;9.00;8.20;;;;;;;-139.48;100.00;61774.03;5001020;28;20525;-73
2022/04/22 13:07:16;;;;;;;8.88;7.93;;;;;;;-139.48;100.00;61774.03;5000614;28;20175;-73
2022/04/22 13:10:02;;;;;;;11.48;8.30;;;;;;;-139.48;100.00;61774.03;4987125;28;20060;-73
2022/04/22 13:12:46;;;;;;;8.32;7.00;;;;;;;-139.48;100.00;61774.03;5000741;28;20145;-73